Terminal Aerodrome Forecast
Issued by NWS Pocatello, ID

Home | Current Version | Previous Version | Text Only | Print | Product List | Glossary On
Versions: 1 2 3 4 5 6 7 8 9 10 11 12 13
000
FTUS45 KPIH 301200 AAA
TAFBYI
TAF AMD
KBYI 301244Z 3013/3112 21008KT P6SM SCT070
     FM301600 26012G22KT P6SM VCTS BKN120CB
     FM310200 22012KT P6SM VCSH BKN070=

USA.gov is the U.S. government's official web portal to all federal, state and local government web resources and services.